sensor_id;sensor_type;location;lat;lon;timestamp;P1;durP1;ratioP1;P2;durP2;ratioP2
7545;SDS011;3814;51.454;12.616;2023-05-29T00:01:56;8.57;;;4.10;;
7545;SDS011;3814;51.454;12.616;2023-05-29T00:04:21;8.63;;;3.65;;
7545;SDS011;3814;51.454;12.616;2023-05-29T00:06:47;8.25;;;3.90;;
7545;SDS011;3814;51.454;12.616;2023-05-29T00:09:12;8.98;;;3.80;;
7545;SDS011;3814;51.454;12.616;2023-05-29T00:11:38;6.65;;;3.58;;
7545;SDS011;3814;51.454;12.616;2023-05-29T00:14:03;8.40;;;3.65;;
7545;SDS011;3814;51.454;12.616;2023-05-29T00:16:29;6.43;;;3.15;;
7545;SDS011;3814;51.454;12.616;2023-05-29T00:18:55;7.22;;;3.47;;
7545;SDS011;3814;51.454;12.616;2023-05-29T00:21:20;6.60;;;3.40;;
7545;SDS011;3814;51.454;12.616;2023-05-29T00:23:47;5.57;;;2.90;;
7545;SDS011;3814;51.454;12.616;2023-05-29T00:26:12;5.88;;;2.72;;
7545;SDS011;3814;51.454;12.616;2023-05-29T00:28:38;7.28;;;3.05;;
7545;SDS011;3814;51.454;12.616;2023-05-29T00:31:04;7.55;;;2.92;;
7545;SDS011;3814;51.454;12.616;2023-05-29T00:33:29;5.30;;;2.90;;
7545;SDS011;3814;51.454;12.616;2023-05-29T00:35:54;7.80;;;2.88;;
7545;SDS011;3814;51.454;12.616;2023-05-29T00:38:20;5.63;;;2.80;;
7545;SDS011;3814;51.454;12.616;2023-05-29T00:40:45;7.95;;;2.80;;
7545;SDS011;3814;51.454;12.616;2023-05-29T00:43:10;6.97;;;2.97;;
7545;SDS011;3814;51.454;12.616;2023-05-29T00:45:36;5.55;;;3.03;;
7545;SDS011;3814;51.454;12.616;2023-05-29T00:48:04;6.20;;;3.40;;
7545;SDS011;3814;51.454;12.616;2023-05-29T00:50:30;6.80;;;2.67;;
7545;SDS011;3814;51.454;12.616;2023-05-29T00:52:56;7.18;;;2.90;;
7545;SDS011;3814;51.454;12.616;2023-05-29T00:55:22;6.07;;;2.95;;
7545;SDS011;3814;51.454;12.616;2023-05-29T00:57:47;5.57;;;2.78;;
7545;SDS011;3814;51.454;12.616;2023-05-29T01:00:14;7.78;;;3.13;;
7545;SDS011;3814;51.454;12.616;2023-05-29T01:02:40;8.73;;;3.15;;
7545;SDS011;3814;51.454;12.616;2023-05-29T01:05:09;6.43;;;3.13;;
7545;SDS011;3814;51.454;12.616;2023-05-29T01:07:38;7.13;;;3.28;;
7545;SDS011;3814;51.454;12.616;2023-05-29T01:10:04;7.53;;;3.15;;
7545;SDS011;3814;51.454;12.616;2023-05-29T01:12:47;6.68;;;3.00;;
7545;SDS011;3814;51.454;12.616;2023-05-29T01:15:18;6.00;;;3.28;;
7545;SDS011;3814;51.454;12.616;2023-05-29T01:20:53;6.93;;;3.10;;
7545;SDS011;3814;51.454;12.616;2023-05-29T01:26:04;7.68;;;3.20;;
7545;SDS011;3814;51.454;12.616;2023-05-29T01:28:33;6.55;;;3.50;;
7545;SDS011;3814;51.454;12.616;2023-05-29T01:31:10;8.43;;;3.15;;
7545;SDS011;3814;51.454;12.616;2023-05-29T01:33:40;6.80;;;3.10;;
7545;SDS011;3814;51.454;12.616;2023-05-29T01:38:32;8.13;;;3.30;;
7545;SDS011;3814;51.454;12.616;2023-05-29T01:40:58;6.90;;;2.92;;
7545;SDS011;3814;51.454;12.616;2023-05-29T01:43:23;6.50;;;3.33;;
7545;SDS011;3814;51.454;12.616;2023-05-29T01:45:48;7.20;;;3.30;;
7545;SDS011;3814;51.454;12.616;2023-05-29T01:48:15;6.03;;;3.22;;
7545;SDS011;3814;51.454;12.616;2023-05-29T01:50:41;6.78;;;3.35;;
7545;SDS011;3814;51.454;12.616;2023-05-29T01:53:08;5.57;;;3.20;;
7545;SDS011;3814;51.454;12.616;2023-05-29T01:55:34;6.93;;;3.05;;
7545;SDS011;3814;51.454;12.616;2023-05-29T01:57:59;8.32;;;3.53;;
7545;SDS011;3814;51.454;12.616;2023-05-29T02:00:25;6.75;;;3.88;;
7545;SDS011;3814;51.454;12.616;2023-05-29T02:02:51;8.35;;;3.22;;
7545;SDS011;3814;51.454;12.616;2023-05-29T02:05:16;5.65;;;3.30;;
7545;SDS011;3814;51.454;12.616;2023-05-29T02:07:42;7.82;;;3.40;;
7545;SDS011;3814;51.454;12.616;2023-05-29T02:10:07;6.95;;;3.08;;
7545;SDS011;3814;51.454;12.616;2023-05-29T02:12:33;7.10;;;3.35;;
7545;SDS011;3814;51.454;12.616;2023-05-29T02:14:58;6.30;;;3.42;;
7545;SDS011;3814;51.454;12.616;2023-05-29T02:17:24;9.48;;;3.67;;
7545;SDS011;3814;51.454;12.616;2023-05-29T02:19:50;9.50;;;3.30;;
7545;SDS011;3814;51.454;12.616;2023-05-29T02:22:16;6.68;;;3.13;;
7545;SDS011;3814;51.454;12.616;2023-05-29T02:24:42;7.72;;;3.67;;
7545;SDS011;3814;51.454;12.616;2023-05-29T02:27:08;8.38;;;3.53;;
7545;SDS011;3814;51.454;12.616;2023-05-29T02:29:34;7.35;;;3.60;;
7545;SDS011;3814;51.454;12.616;2023-05-29T02:31:59;7.38;;;4.00;;
7545;SDS011;3814;51.454;12.616;2023-05-29T02:34:24;7.25;;;3.55;;
7545;SDS011;3814;51.454;12.616;2023-05-29T02:36:50;9.63;;;3.70;;
7545;SDS011;3814;51.454;12.616;2023-05-29T02:39:19;8.00;;;3.70;;
7545;SDS011;3814;51.454;12.616;2023-05-29T02:41:44;7.20;;;3.80;;
7545;SDS011;3814;51.454;12.616;2023-05-29T02:44:10;9.10;;;3.80;;
7545;SDS011;3814;51.454;12.616;2023-05-29T02:46:35;6.10;;;3.10;;
7545;SDS011;3814;51.454;12.616;2023-05-29T02:49:00;7.35;;;3.65;;
7545;SDS011;3814;51.454;12.616;2023-05-29T02:51:26;6.47;;;3.80;;
7545;SDS011;3814;51.454;12.616;2023-05-29T02:53:52;9.30;;;3.80;;
7545;SDS011;3814;51.454;12.616;2023-05-29T02:56:17;7.10;;;3.65;;
7545;SDS011;3814;51.454;12.616;2023-05-29T02:58:42;5.55;;;3.42;;
7545;SDS011;3814;51.454;12.616;2023-05-29T03:01:08;7.75;;;3.42;;
7545;SDS011;3814;51.454;12.616;2023-05-29T03:03:33;8.00;;;3.78;;
7545;SDS011;3814;51.454;12.616;2023-05-29T03:05:59;7.88;;;4.18;;
7545;SDS011;3814;51.454;12.616;2023-05-29T03:08:25;6.18;;;3.53;;
7545;SDS011;3814;51.454;12.616;2023-05-29T03:10:52;9.50;;;4.28;;
7545;SDS011;3814;51.454;12.616;2023-05-29T03:13:17;7.65;;;4.25;;
7545;SDS011;3814;51.454;12.616;2023-05-29T03:15:43;9.65;;;3.72;;
7545;SDS011;3814;51.454;12.616;2023-05-29T03:18:09;8.23;;;3.85;;
7545;SDS011;3814;51.454;12.616;2023-05-29T03:20:34;8.27;;;3.83;;
7545;SDS011;3814;51.454;12.616;2023-05-29T03:23:00;8.43;;;4.22;;
7545;SDS011;3814;51.454;12.616;2023-05-29T03:25:25;8.20;;;4.07;;
7545;SDS011;3814;51.454;12.616;2023-05-29T03:27:50;7.05;;;3.45;;
7545;SDS011;3814;51.454;12.616;2023-05-29T03:30:16;8.68;;;3.70;;
7545;SDS011;3814;51.454;12.616;2023-05-29T03:32:41;9.98;;;3.97;;
7545;SDS011;3814;51.454;12.616;2023-05-29T03:35:07;8.27;;;3.63;;
7545;SDS011;3814;51.454;12.616;2023-05-29T03:37:32;7.05;;;3.58;;
7545;SDS011;3814;51.454;12.616;2023-05-29T03:39:57;8.18;;;4.00;;
7545;SDS011;3814;51.454;12.616;2023-05-29T03:42:23;8.52;;;4.07;;
7545;SDS011;3814;51.454;12.616;2023-05-29T03:44:48;11.32;;;4.13;;
7545;SDS011;3814;51.454;12.616;2023-05-29T03:47:13;7.10;;;3.78;;
7545;SDS011;3814;51.454;12.616;2023-05-29T03:49:39;7.85;;;3.75;;
7545;SDS011;3814;51.454;12.616;2023-05-29T03:52:05;7.85;;;3.72;;
7545;SDS011;3814;51.454;12.616;2023-05-29T03:54:30;6.82;;;3.58;;
7545;SDS011;3814;51.454;12.616;2023-05-29T03:56:55;6.97;;;3.83;;
7545;SDS011;3814;51.454;12.616;2023-05-29T03:59:21;8.85;;;4.10;;
7545;SDS011;3814;51.454;12.616;2023-05-29T04:01:46;6.88;;;3.70;;
7545;SDS011;3814;51.454;12.616;2023-05-29T04:04:11;8.18;;;3.60;;
7545;SDS011;3814;51.454;12.616;2023-05-29T04:06:37;7.97;;;3.58;;
7545;SDS011;3814;51.454;12.616;2023-05-29T04:09:03;7.85;;;3.67;;
7545;SDS011;3814;51.454;12.616;2023-05-29T04:11:29;6.32;;;3.47;;
7545;SDS011;3814;51.454;12.616;2023-05-29T04:13:54;9.13;;;4.00;;
7545;SDS011;3814;51.454;12.616;2023-05-29T04:16:20;11.57;;;4.18;;
7545;SDS011;3814;51.454;12.616;2023-05-29T04:18:45;6.82;;;3.67;;
7545;SDS011;3814;51.454;12.616;2023-05-29T04:21:11;9.05;;;4.05;;
7545;SDS011;3814;51.454;12.616;2023-05-29T04:23:36;8.60;;;3.85;;
7545;SDS011;3814;51.454;12.616;2023-05-29T04:26:02;8.88;;;3.97;;
7545;SDS011;3814;51.454;12.616;2023-05-29T04:28:27;7.68;;;3.47;;
7545;SDS011;3814;51.454;12.616;2023-05-29T04:30:52;8.52;;;3.80;;
7545;SDS011;3814;51.454;12.616;2023-05-29T04:33:21;8.48;;;4.13;;
7545;SDS011;3814;51.454;12.616;2023-05-29T04:35:48;7.05;;;3.50;;
7545;SDS011;3814;51.454;12.616;2023-05-29T04:38:13;8.05;;;3.55;;
7545;SDS011;3814;51.454;12.616;2023-05-29T04:40:39;8.43;;;3.60;;
7545;SDS011;3814;51.454;12.616;2023-05-29T04:43:05;9.75;;;3.60;;
7545;SDS011;3814;51.454;12.616;2023-05-29T04:45:30;8.63;;;3.50;;
7545;SDS011;3814;51.454;12.616;2023-05-29T04:47:56;6.85;;;3.38;;
7545;SDS011;3814;51.454;12.616;2023-05-29T04:50:21;9.15;;;3.42;;
7545;SDS011;3814;51.454;12.616;2023-05-29T04:52:48;7.32;;;3.47;;
7545;SDS011;3814;51.454;12.616;2023-05-29T04:55:14;11.27;;;3.53;;
7545;SDS011;3814;51.454;12.616;2023-05-29T04:57:39;6.65;;;2.97;;
7545;SDS011;3814;51.454;12.616;2023-05-29T05:00:05;8.98;;;3.38;;
7545;SDS011;3814;51.454;12.616;2023-05-29T05:02:32;9.45;;;3.75;;
7545;SDS011;3814;51.454;12.616;2023-05-29T05:04:58;5.70;;;3.05;;
7545;SDS011;3814;51.454;12.616;2023-05-29T05:07:23;7.10;;;3.35;;
7545;SDS011;3814;51.454;12.616;2023-05-29T05:09:49;7.15;;;3.80;;
7545;SDS011;3814;51.454;12.616;2023-05-29T05:12:14;8.88;;;3.78;;
7545;SDS011;3814;51.454;12.616;2023-05-29T05:14:40;7.63;;;3.78;;
7545;SDS011;3814;51.454;12.616;2023-05-29T05:17:05;9.18;;;3.42;;
7545;SDS011;3814;51.454;12.616;2023-05-29T05:19:30;7.30;;;3.50;;
7545;SDS011;3814;51.454;12.616;2023-05-29T05:21:56;6.47;;;3.40;;
7545;SDS011;3814;51.454;12.616;2023-05-29T05:24:21;6.38;;;3.50;;
7545;SDS011;3814;51.454;12.616;2023-05-29T05:26:46;7.32;;;3.63;;
7545;SDS011;3814;51.454;12.616;2023-05-29T05:29:11;7.03;;;3.28;;
7545;SDS011;3814;51.454;12.616;2023-05-29T05:31:37;9.52;;;3.70;;
7545;SDS011;3814;51.454;12.616;2023-05-29T05:34:02;8.82;;;3.90;;
7545;SDS011;3814;51.454;12.616;2023-05-29T05:36:27;7.72;;;3.58;;
7545;SDS011;3814;51.454;12.616;2023-05-29T05:38:53;8.73;;;3.45;;
7545;SDS011;3814;51.454;12.616;2023-05-29T05:41:18;9.30;;;3.38;;
7545;SDS011;3814;51.454;12.616;2023-05-29T05:43:44;7.78;;;3.25;;
7545;SDS011;3814;51.454;12.616;2023-05-29T05:46:09;8.65;;;3.67;;
7545;SDS011;3814;51.454;12.616;2023-05-29T05:48:34;7.88;;;3.45;;
7545;SDS011;3814;51.454;12.616;2023-05-29T05:51:00;9.15;;;3.50;;
7545;SDS011;3814;51.454;12.616;2023-05-29T05:53:25;11.70;;;4.13;;
7545;SDS011;3814;51.454;12.616;2023-05-29T05:55:50;9.20;;;3.53;;
7545;SDS011;3814;51.454;12.616;2023-05-29T05:58:16;7.80;;;3.33;;
7545;SDS011;3814;51.454;12.616;2023-05-29T06:00:41;8.65;;;3.80;;
7545;SDS011;3814;51.454;12.616;2023-05-29T06:03:07;7.57;;;3.17;;
7545;SDS011;3814;51.454;12.616;2023-05-29T06:05:32;7.88;;;3.45;;
7545;SDS011;3814;51.454;12.616;2023-05-29T06:07:59;6.38;;;3.30;;
7545;SDS011;3814;51.454;12.616;2023-05-29T06:10:24;10.18;;;3.63;;
7545;SDS011;3814;51.454;12.616;2023-05-29T06:12:49;6.30;;;3.10;;
7545;SDS011;3814;51.454;12.616;2023-05-29T06:15:15;8.52;;;3.20;;
7545;SDS011;3814;51.454;12.616;2023-05-29T06:17:40;9.90;;;3.55;;
7545;SDS011;3814;51.454;12.616;2023-05-29T06:20:06;9.70;;;3.42;;
7545;SDS011;3814;51.454;12.616;2023-05-29T06:22:38;7.88;;;3.10;;
7545;SDS011;3814;51.454;12.616;2023-05-29T06:25:04;8.75;;;3.33;;
7545;SDS011;3814;51.454;12.616;2023-05-29T06:27:29;7.65;;;3.65;;
7545;SDS011;3814;51.454;12.616;2023-05-29T06:29:55;7.80;;;3.47;;
7545;SDS011;3814;51.454;12.616;2023-05-29T06:32:20;8.48;;;3.55;;
7545;SDS011;3814;51.454;12.616;2023-05-29T06:34:46;8.60;;;3.40;;
7545;SDS011;3814;51.454;12.616;2023-05-29T06:37:12;10.93;;;3.55;;
7545;SDS011;3814;51.454;12.616;2023-05-29T06:39:37;6.40;;;3.10;;
7545;SDS011;3814;51.454;12.616;2023-05-29T06:42:04;8.75;;;3.28;;
7545;SDS011;3814;51.454;12.616;2023-05-29T06:44:29;8.05;;;3.20;;
7545;SDS011;3814;51.454;12.616;2023-05-29T06:46:55;9.68;;;3.35;;
7545;SDS011;3814;51.454;12.616;2023-05-29T06:49:20;8.85;;;3.22;;
7545;SDS011;3814;51.454;12.616;2023-05-29T06:51:45;10.07;;;3.30;;
7545;SDS011;3814;51.454;12.616;2023-05-29T06:54:10;6.25;;;3.20;;
7545;SDS011;3814;51.454;12.616;2023-05-29T06:56:36;8.48;;;3.40;;
7545;SDS011;3814;51.454;12.616;2023-05-29T06:59:01;7.10;;;2.95;;
7545;SDS011;3814;51.454;12.616;2023-05-29T07:01:26;6.07;;;3.03;;
7545;SDS011;3814;51.454;12.616;2023-05-29T07:03:52;8.70;;;3.17;;
7545;SDS011;3814;51.454;12.616;2023-05-29T07:06:18;8.82;;;3.50;;
7545;SDS011;3814;51.454;12.616;2023-05-29T07:08:43;6.82;;;3.15;;
7545;SDS011;3814;51.454;12.616;2023-05-29T07:11:08;7.43;;;3.30;;
7545;SDS011;3814;51.454;12.616;2023-05-29T07:13:34;7.32;;;2.97;;
7545;SDS011;3814;51.454;12.616;2023-05-29T07:16:00;8.40;;;3.33;;
7545;SDS011;3814;51.454;12.616;2023-05-29T07:18:25;7.80;;;3.30;;
7545;SDS011;3814;51.454;12.616;2023-05-29T07:20:51;8.88;;;2.67;;
7545;SDS011;3814;51.454;12.616;2023-05-29T07:23:16;6.43;;;3.10;;
7545;SDS011;3814;51.454;12.616;2023-05-29T07:25:41;7.40;;;3.03;;
7545;SDS011;3814;51.454;12.616;2023-05-29T07:28:07;7.72;;;3.10;;
7545;SDS011;3814;51.454;12.616;2023-05-29T07:30:32;7.30;;;3.10;;
7545;SDS011;3814;51.454;12.616;2023-05-29T07:32:57;7.40;;;2.92;;
7545;SDS011;3814;51.454;12.616;2023-05-29T07:35:23;7.28;;;2.90;;
7545;SDS011;3814;51.454;12.616;2023-05-29T07:37:48;6.72;;;2.70;;
7545;SDS011;3814;51.454;12.616;2023-05-29T07:40:14;7.43;;;3.08;;
7545;SDS011;3814;51.454;12.616;2023-05-29T07:42:41;5.28;;;2.90;;
7545;SDS011;3814;51.454;12.616;2023-05-29T07:45:06;8.23;;;3.20;;
7545;SDS011;3814;51.454;12.616;2023-05-29T07:47:32;8.50;;;3.20;;
7545;SDS011;3814;51.454;12.616;2023-05-29T07:49:57;7.72;;;2.88;;
7545;SDS011;3814;51.454;12.616;2023-05-29T07:52:23;7.63;;;3.20;;
7545;SDS011;3814;51.454;12.616;2023-05-29T07:54:48;6.53;;;2.58;;
7545;SDS011;3814;51.454;12.616;2023-05-29T07:57:13;6.00;;;2.80;;
7545;SDS011;3814;51.454;12.616;2023-05-29T07:59:42;8.75;;;3.20;;
7545;SDS011;3814;51.454;12.616;2023-05-29T08:02:07;9.23;;;3.40;;
7545;SDS011;3814;51.454;12.616;2023-05-29T08:04:33;7.38;;;3.20;;
7545;SDS011;3814;51.454;12.616;2023-05-29T08:07:02;6.18;;;2.55;;
7545;SDS011;3814;51.454;12.616;2023-05-29T08:09:47;6.30;;;2.97;;
7545;SDS011;3814;51.454;12.616;2023-05-29T08:12:13;6.95;;;2.90;;
7545;SDS011;3814;51.454;12.616;2023-05-29T08:14:38;8.65;;;3.00;;
7545;SDS011;3814;51.454;12.616;2023-05-29T08:17:03;6.85;;;3.00;;
7545;SDS011;3814;51.454;12.616;2023-05-29T08:19:28;8.25;;;3.10;;
7545;SDS011;3814;51.454;12.616;2023-05-29T08:21:56;7.28;;;3.20;;
7545;SDS011;3814;51.454;12.616;2023-05-29T08:24:22;7.57;;;2.83;;
7545;SDS011;3814;51.454;12.616;2023-05-29T08:26:47;6.57;;;2.80;;
7545;SDS011;3814;51.454;12.616;2023-05-29T08:29:12;6.82;;;2.40;;
7545;SDS011;3814;51.454;12.616;2023-05-29T08:31:39;6.80;;;2.90;;
7545;SDS011;3814;51.454;12.616;2023-05-29T08:34:04;7.55;;;2.83;;
7545;SDS011;3814;51.454;12.616;2023-05-29T08:36:31;5.85;;;2.47;;
7545;SDS011;3814;51.454;12.616;2023-05-29T08:38:57;7.13;;;2.58;;
7545;SDS011;3814;51.454;12.616;2023-05-29T08:46:37;7.07;;;2.70;;
7545;SDS011;3814;51.454;12.616;2023-05-29T08:49:03;5.05;;;2.40;;
7545;SDS011;3814;51.454;12.616;2023-05-29T08:51:31;11.38;;;3.00;;
7545;SDS011;3814;51.454;12.616;2023-05-29T08:53:59;7.38;;;2.50;;
7545;SDS011;3814;51.454;12.616;2023-05-29T08:56:24;5.43;;;2.60;;
7545;SDS011;3814;51.454;12.616;2023-05-29T11:42:10;5.60;;;2.63;;
7545;SDS011;3814;51.454;12.616;2023-05-29T11:44:36;5.07;;;2.40;;
7545;SDS011;3814;51.454;12.616;2023-05-29T11:49:28;5.00;;;2.40;;
7545;SDS011;3814;51.454;12.616;2023-05-29T11:51:54;6.75;;;2.50;;
7545;SDS011;3814;51.454;12.616;2023-05-29T11:54:19;4.28;;;2.42;;
7545;SDS011;3814;51.454;12.616;2023-05-29T11:56:45;4.50;;;2.30;;
7545;SDS011;3814;51.454;12.616;2023-05-29T11:59:12;5.88;;;2.40;;
7545;SDS011;3814;51.454;12.616;2023-05-29T12:01:37;5.93;;;2.47;;
7545;SDS011;3814;51.454;12.616;2023-05-29T12:04:13;4.88;;;2.60;;
7545;SDS011;3814;51.454;12.616;2023-05-29T12:06:39;6.13;;;2.67;;
7545;SDS011;3814;51.454;12.616;2023-05-29T12:19:53;4.93;;;2.40;;
7545;SDS011;3814;51.454;12.616;2023-05-29T12:22:29;5.28;;;2.60;;
7545;SDS011;3814;51.454;12.616;2023-05-29T12:25:02;4.97;;;2.50;;
7545;SDS011;3814;51.454;12.616;2023-05-29T12:27:36;5.38;;;2.40;;
7545;SDS011;3814;51.454;12.616;2023-05-29T13:14:26;6.18;;;2.72;;
7545;SDS011;3814;51.454;12.616;2023-05-29T13:16:55;5.68;;;2.60;;
7545;SDS011;3814;51.454;12.616;2023-05-29T13:19:24;5.40;;;2.75;;
7545;SDS011;3814;51.454;12.616;2023-05-29T13:22:18;3.88;;;2.25;;
7545;SDS011;3814;51.454;12.616;2023-05-29T13:24:46;5.22;;;2.50;;
7545;SDS011;3814;51.454;12.616;2023-05-29T13:27:11;7.38;;;2.55;;
7545;SDS011;3814;51.454;12.616;2023-05-29T13:29:38;6.18;;;2.55;;
7545;SDS011;3814;51.454;12.616;2023-05-29T13:32:05;4.15;;;2.60;;
7545;SDS011;3814;51.454;12.616;2023-05-29T13:34:30;4.55;;;2.83;;
7545;SDS011;3814;51.454;12.616;2023-05-29T13:37:00;7.28;;;2.75;;
7545;SDS011;3814;51.454;12.616;2023-05-29T13:39:27;5.80;;;2.50;;
7545;SDS011;3814;51.454;12.616;2023-05-29T13:41:53;5.03;;;2.53;;
7545;SDS011;3814;51.454;12.616;2023-05-29T13:44:18;6.32;;;2.75;;
7545;SDS011;3814;51.454;12.616;2023-05-29T13:46:43;8.63;;;2.60;;
7545;SDS011;3814;51.454;12.616;2023-05-29T13:49:09;5.32;;;2.30;;
7545;SDS011;3814;51.454;12.616;2023-05-29T13:51:38;5.32;;;2.90;;
7545;SDS011;3814;51.454;12.616;2023-05-29T13:54:03;5.55;;;2.78;;
7545;SDS011;3814;51.454;12.616;2023-05-29T13:56:29;4.72;;;2.58;;
7545;SDS011;3814;51.454;12.616;2023-05-29T13:58:54;5.00;;;2.78;;
7545;SDS011;3814;51.454;12.616;2023-05-29T14:01:20;9.77;;;2.78;;
7545;SDS011;3814;51.454;12.616;2023-05-29T14:03:45;4.55;;;2.50;;
7545;SDS011;3814;51.454;12.616;2023-05-29T14:06:11;4.88;;;2.50;;
7545;SDS011;3814;51.454;12.616;2023-05-29T14:08:36;4.80;;;2.50;;
7545;SDS011;3814;51.454;12.616;2023-05-29T14:11:01;6.05;;;2.47;;
7545;SDS011;3814;51.454;12.616;2023-05-29T14:13:27;4.90;;;2.53;;
7545;SDS011;3814;51.454;12.616;2023-05-29T14:15:52;3.70;;;2.17;;
7545;SDS011;3814;51.454;12.616;2023-05-29T14:18:19;4.75;;;2.63;;
7545;SDS011;3814;51.454;12.616;2023-05-29T14:20:45;4.20;;;2.30;;
7545;SDS011;3814;51.454;12.616;2023-05-29T14:23:12;6.07;;;2.58;;
7545;SDS011;3814;51.454;12.616;2023-05-29T14:25:40;4.18;;;2.40;;
7545;SDS011;3814;51.454;12.616;2023-05-29T14:28:05;6.43;;;2.45;;
7545;SDS011;3814;51.454;12.616;2023-05-29T14:30:31;4.35;;;2.65;;
7545;SDS011;3814;51.454;12.616;2023-05-29T14:32:56;4.90;;;2.25;;
7545;SDS011;3814;51.454;12.616;2023-05-29T14:35:22;6.22;;;2.60;;
7545;SDS011;3814;51.454;12.616;2023-05-29T14:37:47;7.32;;;2.40;;
7545;SDS011;3814;51.454;12.616;2023-05-29T14:40:12;4.90;;;2.30;;
7545;SDS011;3814;51.454;12.616;2023-05-29T14:42:38;4.03;;;2.40;;
7545;SDS011;3814;51.454;12.616;2023-05-29T14:45:03;4.65;;;2.22;;
7545;SDS011;3814;51.454;12.616;2023-05-29T14:47:29;4.07;;;2.20;;
7545;SDS011;3814;51.454;12.616;2023-05-29T14:49:54;5.95;;;2.65;;
7545;SDS011;3814;51.454;12.616;2023-05-29T14:52:20;6.82;;;2.55;;
7545;SDS011;3814;51.454;12.616;2023-05-29T14:54:45;5.50;;;2.70;;
7545;SDS011;3814;51.454;12.616;2023-05-29T14:57:10;4.47;;;2.60;;
7545;SDS011;3814;51.454;12.616;2023-05-29T14:59:36;5.00;;;2.80;;
7545;SDS011;3814;51.454;12.616;2023-05-29T15:02:01;8.02;;;2.63;;
7545;SDS011;3814;51.454;12.616;2023-05-29T15:04:26;4.28;;;2.50;;
7545;SDS011;3814;51.454;12.616;2023-05-29T15:06:51;4.90;;;2.47;;
7545;SDS011;3814;51.454;12.616;2023-05-29T15:09:18;5.38;;;2.47;;
7545;SDS011;3814;51.454;12.616;2023-05-29T15:11:44;4.47;;;2.58;;
7545;SDS011;3814;51.454;12.616;2023-05-29T15:14:09;4.78;;;2.80;;
7545;SDS011;3814;51.454;12.616;2023-05-29T15:16:35;4.85;;;2.78;;
7545;SDS011;3814;51.454;12.616;2023-05-29T15:19:00;5.45;;;2.95;;
7545;SDS011;3814;51.454;12.616;2023-05-29T15:21:26;8.18;;;2.65;;
7545;SDS011;3814;51.454;12.616;2023-05-29T15:23:51;6.55;;;2.78;;
7545;SDS011;3814;51.454;12.616;2023-05-29T15:26:16;4.57;;;2.25;;
7545;SDS011;3814;51.454;12.616;2023-05-29T15:28:42;4.97;;;2.85;;
7545;SDS011;3814;51.454;12.616;2023-05-29T15:31:07;3.72;;;2.58;;
7545;SDS011;3814;51.454;12.616;2023-05-29T15:33:32;4.00;;;2.30;;
7545;SDS011;3814;51.454;12.616;2023-05-29T15:35:57;7.63;;;2.72;;
7545;SDS011;3814;51.454;12.616;2023-05-29T15:38:23;5.93;;;2.60;;
7545;SDS011;3814;51.454;12.616;2023-05-29T15:40:48;6.90;;;2.70;;
7545;SDS011;3814;51.454;12.616;2023-05-29T15:43:15;5.78;;;3.00;;
7545;SDS011;3814;51.454;12.616;2023-05-29T15:45:40;6.93;;;2.97;;
7545;SDS011;3814;51.454;12.616;2023-05-29T15:48:08;7.00;;;3.00;;
7545;SDS011;3814;51.454;12.616;2023-05-29T15:50:33;4.93;;;2.78;;
7545;SDS011;3814;51.454;12.616;2023-05-29T15:52:58;5.53;;;2.83;;
7545;SDS011;3814;51.454;12.616;2023-05-29T15:55:23;5.35;;;2.67;;
7545;SDS011;3814;51.454;12.616;2023-05-29T15:57:49;5.28;;;2.50;;
7545;SDS011;3814;51.454;12.616;2023-05-29T16:00:14;4.38;;;2.70;;
7545;SDS011;3814;51.454;12.616;2023-05-29T16:02:40;4.72;;;2.63;;
7545;SDS011;3814;51.454;12.616;2023-05-29T16:05:06;5.95;;;2.55;;
7545;SDS011;3814;51.454;12.616;2023-05-29T16:07:31;5.10;;;2.67;;
7545;SDS011;3814;51.454;12.616;2023-05-29T16:09:57;4.78;;;2.33;;
7545;SDS011;3814;51.454;12.616;2023-05-29T16:12:22;4.82;;;2.70;;
7545;SDS011;3814;51.454;12.616;2023-05-29T16:14:48;8.55;;;2.90;;
7545;SDS011;3814;51.454;12.616;2023-05-29T16:17:13;5.03;;;2.65;;
7545;SDS011;3814;51.454;12.616;2023-05-29T16:19:38;4.68;;;2.38;;
7545;SDS011;3814;51.454;12.616;2023-05-29T16:22:05;4.50;;;2.40;;
7545;SDS011;3814;51.454;12.616;2023-05-29T16:24:31;3.67;;;2.33;;
7545;SDS011;3814;51.454;12.616;2023-05-29T16:26:56;7.35;;;2.40;;
7545;SDS011;3814;51.454;12.616;2023-05-29T16:29:22;5.22;;;2.55;;
7545;SDS011;3814;51.454;12.616;2023-05-29T16:31:48;5.72;;;2.78;;
7545;SDS011;3814;51.454;12.616;2023-05-29T16:34:14;7.00;;;2.95;;
7545;SDS011;3814;51.454;12.616;2023-05-29T16:36:39;5.15;;;2.22;;
7545;SDS011;3814;51.454;12.616;2023-05-29T16:39:05;5.60;;;2.50;;
7545;SDS011;3814;51.454;12.616;2023-05-29T16:41:30;4.85;;;2.20;;
7545;SDS011;3814;51.454;12.616;2023-05-29T16:43:55;5.82;;;2.85;;
7545;SDS011;3814;51.454;12.616;2023-05-29T16:46:21;5.45;;;2.47;;
7545;SDS011;3814;51.454;12.616;2023-05-29T16:48:46;5.03;;;2.70;;
7545;SDS011;3814;51.454;12.616;2023-05-29T16:51:12;4.93;;;2.40;;
7545;SDS011;3814;51.454;12.616;2023-05-29T16:53:37;5.65;;;2.67;;
7545;SDS011;3814;51.454;12.616;2023-05-29T16:56:04;3.53;;;2.13;;
7545;SDS011;3814;51.454;12.616;2023-05-29T16:58:31;6.60;;;2.20;;
7545;SDS011;3814;51.454;12.616;2023-05-29T17:00:57;5.35;;;2.40;;
7545;SDS011;3814;51.454;12.616;2023-05-29T17:03:22;9.35;;;2.30;;
7545;SDS011;3814;51.454;12.616;2023-05-29T17:05:47;5.05;;;2.17;;
7545;SDS011;3814;51.454;12.616;2023-05-29T17:08:13;7.20;;;2.50;;
7545;SDS011;3814;51.454;12.616;2023-05-29T17:10:38;4.57;;;2.13;;
7545;SDS011;3814;51.454;12.616;2023-05-29T17:13:04;5.35;;;2.42;;
7545;SDS011;3814;51.454;12.616;2023-05-29T17:15:30;4.03;;;2.35;;
7545;SDS011;3814;51.454;12.616;2023-05-29T17:17:56;4.53;;;2.50;;
7545;SDS011;3814;51.454;12.616;2023-05-29T17:20:22;5.70;;;2.40;;
7545;SDS011;3814;51.454;12.616;2023-05-29T17:22:48;7.10;;;2.30;;
7545;SDS011;3814;51.454;12.616;2023-05-29T17:25:13;6.88;;;2.33;;
7545;SDS011;3814;51.454;12.616;2023-05-29T17:27:38;5.07;;;2.42;;
7545;SDS011;3814;51.454;12.616;2023-05-29T17:30:04;5.38;;;2.53;;
7545;SDS011;3814;51.454;12.616;2023-05-29T17:32:30;5.95;;;2.60;;
7545;SDS011;3814;51.454;12.616;2023-05-29T17:34:55;6.57;;;2.22;;
7545;SDS011;3814;51.454;12.616;2023-05-29T17:37:20;6.28;;;2.40;;
7545;SDS011;3814;51.454;12.616;2023-05-29T17:39:45;5.22;;;2.22;;
7545;SDS011;3814;51.454;12.616;2023-05-29T17:42:11;5.85;;;2.20;;
7545;SDS011;3814;51.454;12.616;2023-05-29T17:44:36;5.75;;;2.28;;
7545;SDS011;3814;51.454;12.616;2023-05-29T17:47:02;4.20;;;2.35;;
7545;SDS011;3814;51.454;12.616;2023-05-29T17:49:27;4.40;;;2.17;;
7545;SDS011;3814;51.454;12.616;2023-05-29T17:51:52;4.47;;;2.22;;
7545;SDS011;3814;51.454;12.616;2023-05-29T17:54:20;5.45;;;2.42;;
7545;SDS011;3814;51.454;12.616;2023-05-29T17:56:48;4.40;;;2.20;;
7545;SDS011;3814;51.454;12.616;2023-05-29T17:59:13;4.78;;;2.15;;
7545;SDS011;3814;51.454;12.616;2023-05-29T18:01:38;4.55;;;2.00;;
7545;SDS011;3814;51.454;12.616;2023-05-29T18:04:04;5.28;;;2.03;;
7545;SDS011;3814;51.454;12.616;2023-05-29T18:06:29;4.63;;;2.10;;
7545;SDS011;3814;51.454;12.616;2023-05-29T18:08:56;5.53;;;2.22;;
7545;SDS011;3814;51.454;12.616;2023-05-29T18:11:21;5.97;;;2.28;;
7545;SDS011;3814;51.454;12.616;2023-05-29T18:13:47;7.65;;;2.05;;
7545;SDS011;3814;51.454;12.616;2023-05-29T18:16:13;3.58;;;1.92;;
7545;SDS011;3814;51.454;12.616;2023-05-29T18:18:38;4.10;;;2.10;;
7545;SDS011;3814;51.454;12.616;2023-05-29T18:21:04;5.18;;;2.30;;
7545;SDS011;3814;51.454;12.616;2023-05-29T18:23:29;4.95;;;2.03;;
7545;SDS011;3814;51.454;12.616;2023-05-29T18:25:55;5.10;;;2.00;;
7545;SDS011;3814;51.454;12.616;2023-05-29T18:28:20;4.53;;;2.00;;
7545;SDS011;3814;51.454;12.616;2023-05-29T18:30:46;4.07;;;1.90;;
7545;SDS011;3814;51.454;12.616;2023-05-29T18:33:12;4.30;;;2.08;;
7545;SDS011;3814;51.454;12.616;2023-05-29T18:35:37;4.40;;;1.98;;
7545;SDS011;3814;51.454;12.616;2023-05-29T18:38:02;3.55;;;2.08;;
7545;SDS011;3814;51.454;12.616;2023-05-29T18:40:28;3.83;;;2.08;;
7545;SDS011;3814;51.454;12.616;2023-05-29T18:42:53;5.80;;;2.00;;
7545;SDS011;3814;51.454;12.616;2023-05-29T18:45:19;6.20;;;2.05;;
7545;SDS011;3814;51.454;12.616;2023-05-29T18:47:44;5.43;;;2.30;;